sensor_id;sensor_type;location;lat;lon;timestamp;P1;durP1;ratioP1;P2;durP2;ratioP2
18574;SDS011;9417;16.484;102.872;2023-04-23T00:00:51;61.30;;;40.17;;
18574;SDS011;9417;16.484;102.872;2023-04-23T00:03:00;55.95;;;40.13;;
18574;SDS011;9417;16.484;102.872;2023-04-23T00:05:13;56.38;;;38.60;;
18574;SDS011;9417;16.484;102.872;2023-04-23T00:07:22;55.90;;;39.15;;
18574;SDS011;9417;16.484;102.872;2023-04-23T00:09:30;54.08;;;38.10;;
18574;SDS011;9417;16.484;102.872;2023-04-23T00:11:38;52.47;;;37.10;;
18574;SDS011;9417;16.484;102.872;2023-04-23T00:13:46;55.13;;;36.45;;
18574;SDS011;9417;16.484;102.872;2023-04-23T00:15:53;54.83;;;36.78;;
18574;SDS011;9417;16.484;102.872;2023-04-23T00:18:01;50.42;;;34.70;;
18574;SDS011;9417;16.484;102.872;2023-04-23T00:20:08;51.88;;;35.85;;
18574;SDS011;9417;16.484;102.872;2023-04-23T00:22:16;49.15;;;34.53;;
18574;SDS011;9417;16.484;102.872;2023-04-23T00:24:25;54.92;;;36.42;;
18574;SDS011;9417;16.484;102.872;2023-04-23T00:26:34;52.63;;;34.90;;
18574;SDS011;9417;16.484;102.872;2023-04-23T00:28:41;55.40;;;35.42;;
18574;SDS011;9417;16.484;102.872;2023-04-23T00:30:48;49.60;;;35.38;;
18574;SDS011;9417;16.484;102.872;2023-04-23T00:32:56;55.35;;;35.60;;
18574;SDS011;9417;16.484;102.872;2023-04-23T00:35:04;54.33;;;35.80;;
18574;SDS011;9417;16.484;102.872;2023-04-23T00:37:12;52.38;;;36.33;;
18574;SDS011;9417;16.484;102.872;2023-04-23T00:39:19;49.03;;;34.63;;
18574;SDS011;9417;16.484;102.872;2023-04-23T00:41:28;55.97;;;36.63;;
18574;SDS011;9417;16.484;102.872;2023-04-23T00:43:36;55.42;;;37.13;;
18574;SDS011;9417;16.484;102.872;2023-04-23T00:45:43;51.22;;;35.60;;
18574;SDS011;9417;16.484;102.872;2023-04-23T00:47:50;53.90;;;36.50;;
18574;SDS011;9417;16.484;102.872;2023-04-23T00:50:00;50.47;;;36.00;;
18574;SDS011;9417;16.484;102.872;2023-04-23T00:52:09;56.35;;;38.15;;
18574;SDS011;9417;16.484;102.872;2023-04-23T00:54:16;60.28;;;38.70;;
18574;SDS011;9417;16.484;102.872;2023-04-23T00:56:24;52.88;;;38.53;;
18574;SDS011;9417;16.484;102.872;2023-04-23T00:58:34;52.65;;;35.97;;
18574;SDS011;9417;16.484;102.872;2023-04-23T01:00:43;54.00;;;37.63;;
18574;SDS011;9417;16.484;102.872;2023-04-23T01:02:51;49.95;;;34.70;;
18574;SDS011;9417;16.484;102.872;2023-04-23T01:05:01;54.15;;;36.28;;
18574;SDS011;9417;16.484;102.872;2023-04-23T01:07:11;51.53;;;35.75;;
18574;SDS011;9417;16.484;102.872;2023-04-23T01:09:19;54.20;;;36.58;;
18574;SDS011;9417;16.484;102.872;2023-04-23T01:11:29;53.85;;;37.25;;
18574;SDS011;9417;16.484;102.872;2023-04-23T01:13:36;51.25;;;35.70;;
18574;SDS011;9417;16.484;102.872;2023-04-23T01:15:44;51.65;;;36.47;;
18574;SDS011;9417;16.484;102.872;2023-04-23T01:17:51;52.17;;;34.30;;
18574;SDS011;9417;16.484;102.872;2023-04-23T01:20:01;50.20;;;35.70;;
18574;SDS011;9417;16.484;102.872;2023-04-23T01:22:12;50.90;;;35.55;;
18574;SDS011;9417;16.484;102.872;2023-04-23T01:26:28;48.90;;;33.78;;
18574;SDS011;9417;16.484;102.872;2023-04-23T01:28:36;49.88;;;35.15;;
18574;SDS011;9417;16.484;102.872;2023-04-23T01:30:43;49.28;;;34.85;;
18574;SDS011;9417;16.484;102.872;2023-04-23T01:32:51;47.60;;;33.72;;
18574;SDS011;9417;16.484;102.872;2023-04-23T01:34:59;46.88;;;32.65;;
18574;SDS011;9417;16.484;102.872;2023-04-23T01:37:08;46.65;;;32.35;;
18574;SDS011;9417;16.484;102.872;2023-04-23T01:39:18;42.58;;;31.45;;
18574;SDS011;9417;16.484;102.872;2023-04-23T01:41:25;41.00;;;30.48;;
18574;SDS011;9417;16.484;102.872;2023-04-23T01:43:33;47.15;;;32.40;;
18574;SDS011;9417;16.484;102.872;2023-04-23T01:45:41;47.08;;;33.40;;
18574;SDS011;9417;16.484;102.872;2023-04-23T01:47:48;43.22;;;31.63;;
18574;SDS011;9417;16.484;102.872;2023-04-23T01:49:55;49.15;;;32.65;;
18574;SDS011;9417;16.484;102.872;2023-04-23T01:52:03;44.80;;;31.90;;
18574;SDS011;9417;16.484;102.872;2023-04-23T01:54:12;42.22;;;31.02;;
18574;SDS011;9417;16.484;102.872;2023-04-23T01:56:19;42.22;;;29.98;;
18574;SDS011;9417;16.484;102.872;2023-04-23T01:58:29;43.15;;;31.00;;
18574;SDS011;9417;16.484;102.872;2023-04-23T02:00:37;43.88;;;30.13;;
18574;SDS011;9417;16.484;102.872;2023-04-23T02:02:44;40.53;;;29.25;;
18574;SDS011;9417;16.484;102.872;2023-04-23T02:04:53;44.97;;;31.38;;
18574;SDS011;9417;16.484;102.872;2023-04-23T02:07:01;40.63;;;30.15;;
18574;SDS011;9417;16.484;102.872;2023-04-23T02:09:09;41.00;;;28.67;;
18574;SDS011;9417;16.484;102.872;2023-04-23T02:11:18;43.53;;;30.02;;
18574;SDS011;9417;16.484;102.872;2023-04-23T02:13:25;41.72;;;28.90;;
18574;SDS011;9417;16.484;102.872;2023-04-23T02:15:32;41.85;;;27.90;;
18574;SDS011;9417;16.484;102.872;2023-04-23T02:17:40;39.70;;;27.92;;
18574;SDS011;9417;16.484;102.872;2023-04-23T02:19:47;36.85;;;27.85;;
18574;SDS011;9417;16.484;102.872;2023-04-23T02:21:55;41.40;;;27.95;;
18574;SDS011;9417;16.484;102.872;2023-04-23T02:24:02;45.17;;;28.95;;
18574;SDS011;9417;16.484;102.872;2023-04-23T02:26:11;37.33;;;27.33;;
18574;SDS011;9417;16.484;102.872;2023-04-23T02:28:20;38.22;;;27.25;;
18574;SDS011;9417;16.484;102.872;2023-04-23T02:30:27;38.83;;;28.10;;
18574;SDS011;9417;16.484;102.872;2023-04-23T02:32:34;35.33;;;27.40;;
18574;SDS011;9417;16.484;102.872;2023-04-23T02:34:41;40.35;;;27.60;;
18574;SDS011;9417;16.484;102.872;2023-04-23T02:36:49;40.08;;;28.38;;
18574;SDS011;9417;16.484;102.872;2023-04-23T02:38:56;39.63;;;26.52;;
18574;SDS011;9417;16.484;102.872;2023-04-23T02:41:03;38.72;;;27.02;;
18574;SDS011;9417;16.484;102.872;2023-04-23T02:43:10;32.75;;;25.35;;
18574;SDS011;9417;16.484;102.872;2023-04-23T02:45:19;36.67;;;25.80;;
18574;SDS011;9417;16.484;102.872;2023-04-23T02:47:26;36.35;;;24.88;;
18574;SDS011;9417;16.484;102.872;2023-04-23T02:49:33;35.05;;;26.23;;
18574;SDS011;9417;16.484;102.872;2023-04-23T02:51:41;34.38;;;25.88;;
18574;SDS011;9417;16.484;102.872;2023-04-23T02:53:49;41.63;;;27.17;;
18574;SDS011;9417;16.484;102.872;2023-04-23T02:55:56;33.38;;;26.27;;
18574;SDS011;9417;16.484;102.872;2023-04-23T02:58:05;39.58;;;26.38;;
18574;SDS011;9417;16.484;102.872;2023-04-23T03:00:14;33.90;;;25.90;;
18574;SDS011;9417;16.484;102.872;2023-04-23T03:02:23;41.88;;;27.33;;
18574;SDS011;9417;16.484;102.872;2023-04-23T03:04:31;32.83;;;25.55;;
18574;SDS011;9417;16.484;102.872;2023-04-23T03:06:39;38.42;;;28.50;;
18574;SDS011;9417;16.484;102.872;2023-04-23T03:08:46;36.08;;;27.15;;
18574;SDS011;9417;16.484;102.872;2023-04-23T03:10:53;33.45;;;25.88;;
18574;SDS011;9417;16.484;102.872;2023-04-23T03:13:00;35.85;;;26.63;;
18574;SDS011;9417;16.484;102.872;2023-04-23T03:15:08;37.28;;;27.38;;
18574;SDS011;9417;16.484;102.872;2023-04-23T03:17:17;38.03;;;27.95;;
18574;SDS011;9417;16.484;102.872;2023-04-23T03:19:27;33.85;;;26.05;;
18574;SDS011;9417;16.484;102.872;2023-04-23T03:21:34;35.65;;;27.35;;
18574;SDS011;9417;16.484;102.872;2023-04-23T03:23:42;36.45;;;27.83;;
18574;SDS011;9417;16.484;102.872;2023-04-23T03:25:51;35.28;;;26.70;;
18574;SDS011;9417;16.484;102.872;2023-04-23T03:27:58;33.92;;;26.63;;
18574;SDS011;9417;16.484;102.872;2023-04-23T03:30:06;36.53;;;26.65;;
18574;SDS011;9417;16.484;102.872;2023-04-23T03:32:14;36.10;;;25.83;;
18574;SDS011;9417;16.484;102.872;2023-04-23T03:34:21;35.95;;;28.10;;
18574;SDS011;9417;16.484;102.872;2023-04-23T03:36:30;36.40;;;26.88;;
18574;SDS011;9417;16.484;102.872;2023-04-23T03:38:38;36.47;;;27.75;;
18574;SDS011;9417;16.484;102.872;2023-04-23T03:40:45;36.88;;;27.75;;
18574;SDS011;9417;16.484;102.872;2023-04-23T03:42:53;37.70;;;27.65;;
18574;SDS011;9417;16.484;102.872;2023-04-23T03:45:20;35.40;;;26.95;;
18574;SDS011;9417;16.484;102.872;2023-04-23T03:47:27;38.30;;;27.95;;
18574;SDS011;9417;16.484;102.872;2023-04-23T03:49:34;38.40;;;28.30;;
18574;SDS011;9417;16.484;102.872;2023-04-23T03:51:44;40.20;;;28.80;;
18574;SDS011;9417;16.484;102.872;2023-04-23T03:53:53;35.80;;;28.27;;
18574;SDS011;9417;16.484;102.872;2023-04-23T03:56:03;36.13;;;27.73;;
18574;SDS011;9417;16.484;102.872;2023-04-23T03:58:21;36.25;;;26.75;;
18574;SDS011;9417;16.484;102.872;2023-04-23T04:00:28;37.72;;;28.52;;
18574;SDS011;9417;16.484;102.872;2023-04-23T04:02:35;39.22;;;30.20;;
18574;SDS011;9417;16.484;102.872;2023-04-23T04:04:43;43.22;;;30.45;;
18574;SDS011;9417;16.484;102.872;2023-04-23T04:06:53;38.85;;;29.08;;
18574;SDS011;9417;16.484;102.872;2023-04-23T04:09:02;40.50;;;29.10;;
18574;SDS011;9417;16.484;102.872;2023-04-23T04:11:10;39.15;;;30.15;;
18574;SDS011;9417;16.484;102.872;2023-04-23T04:13:17;41.85;;;31.60;;
18574;SDS011;9417;16.484;102.872;2023-04-23T04:15:24;38.78;;;30.73;;
18574;SDS011;9417;16.484;102.872;2023-04-23T04:17:31;39.65;;;31.67;;
18574;SDS011;9417;16.484;102.872;2023-04-23T04:19:38;38.55;;;30.38;;
18574;SDS011;9417;16.484;102.872;2023-04-23T04:21:46;43.95;;;29.85;;
18574;SDS011;9417;16.484;102.872;2023-04-23T04:23:55;40.75;;;30.98;;
18574;SDS011;9417;16.484;102.872;2023-04-23T04:26:04;38.72;;;29.77;;
18574;SDS011;9417;16.484;102.872;2023-04-23T04:28:11;41.13;;;31.25;;
18574;SDS011;9417;16.484;102.872;2023-04-23T04:30:19;41.67;;;31.92;;
18574;SDS011;9417;16.484;102.872;2023-04-23T04:32:26;42.40;;;31.85;;
18574;SDS011;9417;16.484;102.872;2023-04-23T04:34:33;41.10;;;31.85;;
18574;SDS011;9417;16.484;102.872;2023-04-23T04:36:42;41.42;;;31.70;;
18574;SDS011;9417;16.484;102.872;2023-04-23T04:38:49;40.75;;;30.85;;
18574;SDS011;9417;16.484;102.872;2023-04-23T04:41:00;42.20;;;32.70;;
18574;SDS011;9417;16.484;102.872;2023-04-23T04:43:07;43.65;;;34.28;;
18574;SDS011;9417;16.484;102.872;2023-04-23T04:45:15;45.80;;;33.78;;
18574;SDS011;9417;16.484;102.872;2023-04-23T04:47:22;43.72;;;33.15;;
18574;SDS011;9417;16.484;102.872;2023-04-23T04:49:29;45.28;;;33.70;;
18574;SDS011;9417;16.484;102.872;2023-04-23T04:51:37;43.30;;;32.75;;
18574;SDS011;9417;16.484;102.872;2023-04-23T04:53:44;39.72;;;31.25;;
18574;SDS011;9417;16.484;102.872;2023-04-23T04:55:52;43.40;;;33.00;;
18574;SDS011;9417;16.484;102.872;2023-04-23T04:58:01;41.75;;;34.15;;
18574;SDS011;9417;16.484;102.872;2023-04-23T05:02:31;43.90;;;33.60;;
18574;SDS011;9417;16.484;102.872;2023-04-23T05:04:39;46.85;;;34.08;;
18574;SDS011;9417;16.484;102.872;2023-04-23T05:06:46;41.83;;;33.00;;
18574;SDS011;9417;16.484;102.872;2023-04-23T05:08:53;45.72;;;35.22;;
18574;SDS011;9417;16.484;102.872;2023-04-23T05:11:01;43.35;;;32.78;;
18574;SDS011;9417;16.484;102.872;2023-04-23T05:13:10;41.47;;;33.75;;
18574;SDS011;9417;16.484;102.872;2023-04-23T05:15:17;39.03;;;32.05;;
18574;SDS011;9417;16.484;102.872;2023-04-23T05:17:25;43.97;;;33.65;;
18574;SDS011;9417;16.484;102.872;2023-04-23T05:19:32;40.17;;;33.22;;
18574;SDS011;9417;16.484;102.872;2023-04-23T05:21:39;44.55;;;33.25;;
18574;SDS011;9417;16.484;102.872;2023-04-23T05:23:46;47.50;;;33.97;;
18574;SDS011;9417;16.484;102.872;2023-04-23T05:25:53;41.78;;;32.88;;
18574;SDS011;9417;16.484;102.872;2023-04-23T05:28:01;41.95;;;33.58;;
18574;SDS011;9417;16.484;102.872;2023-04-23T05:30:10;40.00;;;34.28;;
18574;SDS011;9417;16.484;102.872;2023-04-23T05:32:17;47.50;;;34.47;;
18574;SDS011;9417;16.484;102.872;2023-04-23T05:34:25;43.70;;;34.30;;
18574;SDS011;9417;16.484;102.872;2023-04-23T05:36:32;43.85;;;34.20;;
18574;SDS011;9417;16.484;102.872;2023-04-23T05:38:39;46.10;;;34.50;;
18574;SDS011;9417;16.484;102.872;2023-04-23T05:40:46;38.80;;;32.25;;
18574;SDS011;9417;16.484;102.872;2023-04-23T05:42:53;42.97;;;33.78;;
18574;SDS011;9417;16.484;102.872;2023-04-23T05:45:01;44.08;;;33.33;;
18574;SDS011;9417;16.484;102.872;2023-04-23T05:47:13;42.45;;;33.55;;
18574;SDS011;9417;16.484;102.872;2023-04-23T05:49:20;41.53;;;33.92;;
18574;SDS011;9417;16.484;102.872;2023-04-23T05:51:27;42.72;;;33.83;;
18574;SDS011;9417;16.484;102.872;2023-04-23T05:53:34;41.67;;;33.70;;
18574;SDS011;9417;16.484;102.872;2023-04-23T05:55:42;43.42;;;33.38;;
18574;SDS011;9417;16.484;102.872;2023-04-23T05:57:49;44.13;;;33.85;;
18574;SDS011;9417;16.484;102.872;2023-04-23T05:59:56;40.50;;;33.42;;
18574;SDS011;9417;16.484;102.872;2023-04-23T06:02:14;39.15;;;32.78;;
18574;SDS011;9417;16.484;102.872;2023-04-23T06:04:25;39.30;;;31.52;;
18574;SDS011;9417;16.484;102.872;2023-04-23T06:06:33;44.10;;;34.45;;
18574;SDS011;9417;16.484;102.872;2023-04-23T06:08:40;41.92;;;34.03;;
18574;SDS011;9417;16.484;102.872;2023-04-23T06:10:47;44.20;;;33.40;;
18574;SDS011;9417;16.484;102.872;2023-04-23T06:12:55;38.08;;;33.63;;
18574;SDS011;9417;16.484;102.872;2023-04-23T06:15:02;38.42;;;32.28;;
18574;SDS011;9417;16.484;102.872;2023-04-23T06:17:10;42.10;;;33.80;;
18574;SDS011;9417;16.484;102.872;2023-04-23T06:19:19;40.08;;;33.67;;
18574;SDS011;9417;16.484;102.872;2023-04-23T06:21:28;44.42;;;34.78;;
18574;SDS011;9417;16.484;102.872;2023-04-23T06:23:35;45.03;;;33.30;;
18574;SDS011;9417;16.484;102.872;2023-04-23T06:25:42;45.25;;;34.35;;
18574;SDS011;9417;16.484;102.872;2023-04-23T06:27:49;42.60;;;33.50;;
18574;SDS011;9417;16.484;102.872;2023-04-23T06:29:59;45.88;;;34.58;;
18574;SDS011;9417;16.484;102.872;2023-04-23T06:32:06;43.05;;;33.08;;
18574;SDS011;9417;16.484;102.872;2023-04-23T06:34:14;40.60;;;33.78;;
18574;SDS011;9417;16.484;102.872;2023-04-23T06:36:22;42.78;;;34.30;;
18574;SDS011;9417;16.484;102.872;2023-04-23T06:38:30;44.30;;;34.88;;
18574;SDS011;9417;16.484;102.872;2023-04-23T06:40:37;41.97;;;34.53;;
18574;SDS011;9417;16.484;102.872;2023-04-23T06:42:44;41.55;;;34.75;;
18574;SDS011;9417;16.484;102.872;2023-04-23T06:45:11;42.33;;;33.90;;
18574;SDS011;9417;16.484;102.872;2023-04-23T06:47:18;45.20;;;34.28;;
18574;SDS011;9417;16.484;102.872;2023-04-23T06:49:25;42.08;;;34.80;;
18574;SDS011;9417;16.484;102.872;2023-04-23T06:51:34;40.88;;;34.20;;
18574;SDS011;9417;16.484;102.872;2023-04-23T06:53:41;41.95;;;34.53;;
18574;SDS011;9417;16.484;102.872;2023-04-23T06:55:48;42.67;;;35.72;;
18574;SDS011;9417;16.484;102.872;2023-04-23T06:57:56;41.33;;;33.67;;
18574;SDS011;9417;16.484;102.872;2023-04-23T07:00:04;39.20;;;33.85;;
18574;SDS011;9417;16.484;102.872;2023-04-23T07:02:15;43.30;;;34.10;;
18574;SDS011;9417;16.484;102.872;2023-04-23T07:04:23;44.22;;;33.85;;
18574;SDS011;9417;16.484;102.872;2023-04-23T07:06:30;38.58;;;32.53;;
18574;SDS011;9417;16.484;102.872;2023-04-23T07:08:40;40.50;;;33.15;;
18574;SDS011;9417;16.484;102.872;2023-04-23T07:10:47;39.00;;;33.38;;
18574;SDS011;9417;16.484;102.872;2023-04-23T07:12:56;44.17;;;33.83;;
18574;SDS011;9417;16.484;102.872;2023-04-23T07:15:03;40.25;;;34.15;;
18574;SDS011;9417;16.484;102.872;2023-04-23T07:17:11;42.13;;;33.65;;
18574;SDS011;9417;16.484;102.872;2023-04-23T07:19:18;44.10;;;33.05;;
18574;SDS011;9417;16.484;102.872;2023-04-23T07:21:25;38.70;;;33.13;;
18574;SDS011;9417;16.484;102.872;2023-04-23T07:23:33;46.42;;;34.88;;
18574;SDS011;9417;16.484;102.872;2023-04-23T07:25:42;44.22;;;35.28;;
18574;SDS011;9417;16.484;102.872;2023-04-23T07:27:49;41.75;;;34.88;;
18574;SDS011;9417;16.484;102.872;2023-04-23T07:29:57;39.95;;;34.83;;
18574;SDS011;9417;16.484;102.872;2023-04-23T07:32:04;43.13;;;34.55;;
18574;SDS011;9417;16.484;102.872;2023-04-23T07:34:11;43.08;;;35.13;;
18574;SDS011;9417;16.484;102.872;2023-04-23T07:36:18;42.90;;;34.92;;
18574;SDS011;9417;16.484;102.872;2023-04-23T07:38:26;45.33;;;35.95;;
18574;SDS011;9417;16.484;102.872;2023-04-23T07:40:33;40.53;;;33.88;;
18574;SDS011;9417;16.484;102.872;2023-04-23T07:42:42;41.15;;;35.05;;
18574;SDS011;9417;16.484;102.872;2023-04-23T07:44:49;41.28;;;34.50;;
18574;SDS011;9417;16.484;102.872;2023-04-23T07:46:56;47.28;;;33.92;;
18574;SDS011;9417;16.484;102.872;2023-04-23T07:49:03;42.83;;;33.92;;
18574;SDS011;9417;16.484;102.872;2023-04-23T07:51:11;44.55;;;34.10;;
18574;SDS011;9417;16.484;102.872;2023-04-23T07:53:18;41.10;;;35.10;;
18574;SDS011;9417;16.484;102.872;2023-04-23T07:55:25;43.65;;;34.38;;
18574;SDS011;9417;16.484;102.872;2023-04-23T07:57:33;45.83;;;35.50;;
18574;SDS011;9417;16.484;102.872;2023-04-23T07:59:42;44.95;;;34.10;;
18574;SDS011;9417;16.484;102.872;2023-04-23T08:01:49;40.03;;;33.30;;
18574;SDS011;9417;16.484;102.872;2023-04-23T08:03:57;44.10;;;34.20;;
18574;SDS011;9417;16.484;102.872;2023-04-23T08:06:04;43.30;;;33.78;;
18574;SDS011;9417;16.484;102.872;2023-04-23T08:08:12;40.80;;;34.83;;
18574;SDS011;9417;16.484;102.872;2023-04-23T08:10:19;43.42;;;34.05;;
18574;SDS011;9417;16.484;102.872;2023-04-23T08:12:26;42.00;;;33.40;;
18574;SDS011;9417;16.484;102.872;2023-04-23T08:14:34;41.60;;;34.10;;
18574;SDS011;9417;16.484;102.872;2023-04-23T08:16:48;42.83;;;35.25;;
18574;SDS011;9417;16.484;102.872;2023-04-23T08:18:55;40.03;;;33.35;;
18574;SDS011;9417;16.484;102.872;2023-04-23T08:21:08;41.22;;;33.58;;
18574;SDS011;9417;16.484;102.872;2023-04-23T08:23:16;40.53;;;34.95;;
18574;SDS011;9417;16.484;102.872;2023-04-23T08:25:23;43.15;;;35.58;;
18574;SDS011;9417;16.484;102.872;2023-04-23T08:27:31;41.65;;;34.78;;
18574;SDS011;9417;16.484;102.872;2023-04-23T08:29:38;45.88;;;35.30;;
18574;SDS011;9417;16.484;102.872;2023-04-23T08:31:45;51.08;;;36.53;;
18574;SDS011;9417;16.484;102.872;2023-04-23T08:33:55;48.75;;;35.17;;
18574;SDS011;9417;16.484;102.872;2023-04-23T08:36:02;44.65;;;34.58;;
18574;SDS011;9417;16.484;102.872;2023-04-23T08:38:09;40.72;;;34.72;;
18574;SDS011;9417;16.484;102.872;2023-04-23T08:40:16;42.53;;;34.67;;
18574;SDS011;9417;16.484;102.872;2023-04-23T08:42:26;43.30;;;34.88;;
18574;SDS011;9417;16.484;102.872;2023-04-23T08:44:41;44.63;;;34.80;;
18574;SDS011;9417;16.484;102.872;2023-04-23T08:46:53;43.45;;;34.00;;
18574;SDS011;9417;16.484;102.872;2023-04-23T08:49:01;42.58;;;34.72;;
18574;SDS011;9417;16.484;102.872;2023-04-23T08:51:10;45.78;;;34.95;;
18574;SDS011;9417;16.484;102.872;2023-04-23T08:53:22;39.83;;;33.58;;
18574;SDS011;9417;16.484;102.872;2023-04-23T08:55:33;43.75;;;34.47;;
18574;SDS011;9417;16.484;102.872;2023-04-23T08:57:40;41.63;;;33.72;;
18574;SDS011;9417;16.484;102.872;2023-04-23T08:59:48;39.05;;;34.00;;
18574;SDS011;9417;16.484;102.872;2023-04-23T09:01:57;40.40;;;32.78;;
18574;SDS011;9417;16.484;102.872;2023-04-23T09:04:10;43.10;;;34.47;;
18574;SDS011;9417;16.484;102.872;2023-04-23T09:06:20;42.55;;;33.75;;
18574;SDS011;9417;16.484;102.872;2023-04-23T09:08:27;41.00;;;33.42;;
18574;SDS011;9417;16.484;102.872;2023-04-23T09:10:35;38.30;;;32.05;;
18574;SDS011;9417;16.484;102.872;2023-04-23T09:12:45;43.55;;;34.17;;
18574;SDS011;9417;16.484;102.872;2023-04-23T09:14:52;39.95;;;33.03;;
18574;SDS011;9417;16.484;102.872;2023-04-23T09:17:01;43.85;;;32.30;;
18574;SDS011;9417;16.484;102.872;2023-04-23T09:19:09;41.22;;;32.45;;
18574;SDS011;9417;16.484;102.872;2023-04-23T09:21:16;40.67;;;33.97;;
18574;SDS011;9417;16.484;102.872;2023-04-23T09:23:25;41.38;;;35.63;;
18574;SDS011;9417;16.484;102.872;2023-04-23T09:25:34;43.30;;;36.25;;
18574;SDS011;9417;16.484;102.872;2023-04-23T09:27:41;43.10;;;35.63;;
18574;SDS011;9417;16.484;102.872;2023-04-23T09:29:49;49.38;;;37.00;;
18574;SDS011;9417;16.484;102.872;2023-04-23T09:32:04;44.85;;;34.97;;
18574;SDS011;9417;16.484;102.872;2023-04-23T09:34:14;44.05;;;37.08;;
18574;SDS011;9417;16.484;102.872;2023-04-23T09:36:21;43.28;;;34.80;;
18574;SDS011;9417;16.484;102.872;2023-04-23T09:38:29;48.60;;;36.10;;
18574;SDS011;9417;16.484;102.872;2023-04-23T09:40:38;42.63;;;34.88;;
18574;SDS011;9417;16.484;102.872;2023-04-23T09:42:46;47.72;;;37.45;;
18574;SDS011;9417;16.484;102.872;2023-04-23T09:44:56;45.65;;;36.67;;
18574;SDS011;9417;16.484;102.872;2023-04-23T09:47:07;46.40;;;37.63;;
18574;SDS011;9417;16.484;102.872;2023-04-23T09:51:24;46.10;;;34.88;;
18574;SDS011;9417;16.484;102.872;2023-04-23T09:53:31;48.05;;;37.22;;
18574;SDS011;9417;16.484;102.872;2023-04-23T09:55:47;47.28;;;36.65;;
18574;SDS011;9417;16.484;102.872;2023-04-23T09:57:57;47.88;;;35.42;;
18574;SDS011;9417;16.484;102.872;2023-04-23T10:00:12;47.08;;;37.10;;
18574;SDS011;9417;16.484;102.872;2023-04-23T10:02:27;64.13;;;44.10;;
18574;SDS011;9417;16.484;102.872;2023-04-23T10:04:36;87.10;;;54.15;;
18574;SDS011;9417;16.484;102.872;2023-04-23T10:06:44;79.55;;;51.10;;
18574;SDS011;9417;16.484;102.872;2023-04-23T10:09:12;88.70;;;57.40;;
18574;SDS011;9417;16.484;102.872;2023-04-23T10:11:19;82.10;;;54.67;;
18574;SDS011;9417;16.484;102.872;2023-04-23T10:13:27;99.15;;;63.88;;
18574;SDS011;9417;16.484;102.872;2023-04-23T10:15:35;95.38;;;61.78;;
18574;SDS011;9417;16.484;102.872;2023-04-23T10:17:44;94.25;;;58.28;;
18574;SDS011;9417;16.484;102.872;2023-04-23T10:19:53;84.63;;;52.80;;
18574;SDS011;9417;16.484;102.872;2023-04-23T10:22:04;68.22;;;45.75;;
18574;SDS011;9417;16.484;102.872;2023-04-23T10:24:22;63.33;;;45.88;;
18574;SDS011;9417;16.484;102.872;2023-04-23T10:26:31;59.45;;;42.85;;
18574;SDS011;9417;16.484;102.872;2023-04-23T10:28:39;52.40;;;40.00;;
18574;SDS011;9417;16.484;102.872;2023-04-23T10:30:49;53.10;;;40.90;;
18574;SDS011;9417;16.484;102.872;2023-04-23T10:32:59;54.83;;;42.03;;
18574;SDS011;9417;16.484;102.872;2023-04-23T10:35:17;60.50;;;42.05;;
18574;SDS011;9417;16.484;102.872;2023-04-23T10:37:25;53.83;;;41.83;;
18574;SDS011;9417;16.484;102.872;2023-04-23T10:39:33;49.28;;;40.10;;
18574;SDS011;9417;16.484;102.872;2023-04-23T10:41:41;47.40;;;38.13;;
18574;SDS011;9417;16.484;102.872;2023-04-23T10:43:51;46.22;;;36.28;;
18574;SDS011;9417;16.484;102.872;2023-04-23T10:45:59;50.53;;;38.00;;
18574;SDS011;9417;16.484;102.872;2023-04-23T10:48:11;46.25;;;36.33;;
18574;SDS011;9417;16.484;102.872;2023-04-23T10:50:23;46.17;;;37.28;;
18574;SDS011;9417;16.484;102.872;2023-04-23T10:52:31;45.88;;;34.88;;
18574;SDS011;9417;16.484;102.872;2023-04-23T10:54:40;46.45;;;35.72;;
18574;SDS011;9417;16.484;102.872;2023-04-23T10:56:49;43.88;;;34.33;;
18574;SDS011;9417;16.484;102.872;2023-04-23T10:59:05;48.33;;;35.97;;
18574;SDS011;9417;16.484;102.872;2023-04-23T11:01:23;47.20;;;36.22;;
18574;SDS011;9417;16.484;102.872;2023-04-23T11:03:36;48.55;;;35.80;;
18574;SDS011;9417;16.484;102.872;2023-04-23T11:05:47;46.20;;;35.55;;
18574;SDS011;9417;16.484;102.872;2023-04-23T11:08:04;47.30;;;34.42;;
18574;SDS011;9417;16.484;102.872;2023-04-23T11:10:21;43.63;;;34.78;;
18574;SDS011;9417;16.484;102.872;2023-04-23T11:12:30;46.25;;;36.03;;
18574;SDS011;9417;16.484;102.872;2023-04-23T11:14:42;48.20;;;36.35;;
18574;SDS011;9417;16.484;102.872;2023-04-23T11:16:52;49.85;;;36.95;;
18574;SDS011;9417;16.484;102.872;2023-04-23T11:19:02;48.20;;;35.47;;
18574;SDS011;9417;16.484;102.872;2023-04-23T11:21:15;46.58;;;35.22;;
18574;SDS011;9417;16.484;102.872;2023-04-23T11:23:28;48.40;;;35.78;;
18574;SDS011;9417;16.484;102.872;2023-04-23T11:25:37;49.47;;;36.65;;
18574;SDS011;9417;16.484;102.872;2023-04-23T11:27:46;44.35;;;35.70;;
18574;SDS011;9417;16.484;102.872;2023-04-23T11:29:55;44.40;;;34.78;;
18574;SDS011;9417;16.484;102.872;2023-04-23T11:32:03;48.95;;;37.00;;
18574;SDS011;9417;16.484;102.872;2023-04-23T11:34:15;50.70;;;34.92;;
18574;SDS011;9417;16.484;102.872;2023-04-23T11:36:22;48.63;;;35.72;;
18574;SDS011;9417;16.484;102.872;2023-04-23T11:38:32;51.17;;;36.30;;
18574;SDS011;9417;16.484;102.872;2023-04-23T11:40:39;44.80;;;35.67;;
18574;SDS011;9417;16.484;102.872;2023-04-23T11:42:48;49.90;;;37.13;;
18574;SDS011;9417;16.484;102.872;2023-04-23T11:44:57;49.20;;;38.53;;
18574;SDS011;9417;16.484;102.872;2023-04-23T11:47:05;52.58;;;37.13;;
18574;SDS011;9417;16.484;102.872;2023-04-23T11:49:15;46.88;;;36.22;;
18574;SDS011;9417;16.484;102.872;2023-04-23T11:51:24;47.70;;;37.13;;
18574;SDS011;9417;16.484;102.872;2023-04-23T11:53:31;51.88;;;37.80;;
18574;SDS011;9417;16.484;102.872;2023-04-23T11:55:39;57.17;;;36.83;;
18574;SDS011;9417;16.484;102.872;2023-04-23T11:57:48;46.72;;;36.88;;
18574;SDS011;9417;16.484;102.872;2023-04-23T11:59:56;49.40;;;37.38;;
18574;SDS011;9417;16.484;102.872;2023-04-23T12:02:12;55.13;;;39.13;;
18574;SDS011;9417;16.484;102.872;2023-04-23T12:04:22;52.33;;;37.78;;
18574;SDS011;9417;16.484;102.872;2023-04-23T12:06:30;56.42;;;39.58;;
18574;SDS011;9417;16.484;102.872;2023-04-23T12:08:38;53.45;;;38.97;;
18574;SDS011;9417;16.484;102.872;2023-04-23T12:10:47;52.03;;;39.30;;
18574;SDS011;9417;16.484;102.872;2023-04-23T12:12:57;49.75;;;38.10;;
18574;SDS011;9417;16.484;102.872;2023-04-23T12:15:04;50.28;;;37.83;;
18574;SDS011;9417;16.484;102.872;2023-04-23T12:17:12;50.20;;;38.20;;
18574;SDS011;9417;16.484;102.872;2023-04-23T12:19:20;47.65;;;37.67;;
18574;SDS011;9417;16.484;102.872;2023-04-23T12:21:33;52.95;;;37.60;;
18574;SDS011;9417;16.484;102.872;2023-04-23T12:23:40;55.03;;;37.97;;
18574;SDS011;9417;16.484;102.872;2023-04-23T12:25:48;52.40;;;38.80;;
18574;SDS011;9417;16.484;102.872;2023-04-23T12:27:59;51.33;;;38.70;;